createdAt,value
2022-10-15T00:01:15.114Z,100248.69
2022-10-15T00:04:18.084Z,100251.44
2022-10-15T00:07:20.821Z,100249.41
2022-10-15T00:10:23.826Z,100257.00
2022-10-15T00:13:26.310Z,100251.00
2022-10-15T00:16:29.588Z,100242.62
2022-10-15T00:19:32.109Z,100239.28
2022-10-15T00:22:35.267Z,100248.25
2022-10-15T00:25:38.116Z,100244.88
2022-10-15T00:28:41.389Z,100243.22
2022-10-15T00:31:43.881Z,100238.88
2022-10-15T00:34:48.208Z,100238.03
2022-10-15T00:37:50.703Z,100244.66
2022-10-15T00:40:53.705Z,100240.47
2022-10-15T00:44:01.400Z,100243.72
2022-10-15T00:47:19.468Z,100232.41
2022-10-15T00:50:24.183Z,100235.81
2022-10-15T00:53:27.025Z,100228.59
2022-10-15T00:56:31.740Z,100225.78
2022-10-15T00:59:37.354Z,100222.88
2022-10-15T01:02:39.971Z,100226.50
2022-10-15T01:05:43.794Z,100218.16
2022-10-15T01:08:46.575Z,100216.34
2022-10-15T01:11:51.093Z,100217.16
2022-10-15T01:15:01.557Z,100221.09
2022-10-15T01:18:07.278Z,100221.25
2022-10-15T01:21:31.205Z,100217.06
2022-10-15T01:24:52.553Z,100216.09
2022-10-15T01:27:58.570Z,100221.69
2022-10-15T01:31:22.011Z,100221.84
2022-10-15T01:35:00.471Z,100221.97
2022-10-15T01:38:04.248Z,100229.53
2022-10-15T01:41:15.864Z,100227.47
2022-10-15T01:44:23.819Z,100220.50
2022-10-15T01:47:32.848Z,100220.06
2022-10-15T01:50:38.929Z,100214.59
2022-10-15T01:53:42.295Z,100210.56
2022-10-15T01:56:49.767Z,100210.25
2022-10-15T01:59:52.756Z,100206.91
2022-10-15T02:03:01.698Z,100205.94
2022-10-15T02:06:09.902Z,100199.78
2022-10-15T02:09:42.543Z,100193.66
2022-10-15T02:13:02.298Z,100204.56
2022-10-15T02:16:23.509Z,100201.19
2022-10-15T02:19:35.572Z,100201.34
2022-10-15T02:22:45.139Z,100199.13
2022-10-15T02:25:50.144Z,100211.41
2022-10-15T02:28:55.676Z,100207.22
2022-10-15T02:31:59.265Z,100201.25
2022-10-15T02:35:02.598Z,100206.28
2022-10-15T02:38:07.186Z,100203.94
2022-10-15T02:41:10.211Z,100200.16
2022-10-15T02:44:12.792Z,100188.69
2022-10-15T02:47:15.678Z,100198.62
2022-10-15T02:50:18.404Z,100202.25
2022-10-15T02:53:21.164Z,100198.91
2022-10-15T02:56:23.743Z,100198.97
2022-10-15T02:59:26.930Z,100190.28
2022-10-15T03:02:29.718Z,100191.97
2022-10-15T03:05:34.535Z,100192.09
2022-10-15T03:08:37.759Z,100194.75
2022-10-15T03:11:41.528Z,100190.44
2022-10-15T03:14:44.033Z,100186.69
2022-10-15T03:17:46.836Z,100185.69
2022-10-15T03:20:55.804Z,100180.78
2022-10-15T03:23:59.344Z,100189.72
2022-10-15T03:27:02.874Z,100187.06
2022-10-15T03:30:06.491Z,100178.81
2022-10-15T03:33:09.536Z,100180.63
2022-10-15T03:36:12.392Z,100183.16
2022-10-15T03:39:15.067Z,100179.66
2022-10-15T03:42:18.034Z,100181.03
2022-10-15T03:45:23.507Z,100187.19
2022-10-15T03:48:30.393Z,100184.06
2022-10-15T03:51:33.287Z,100181.72
2022-10-15T03:54:37.219Z,100189.53
2022-10-15T03:57:40.386Z,100188.56
2022-10-15T04:00:44.632Z,100193.56
2022-10-15T04:03:47.494Z,100188.56
2022-10-15T04:06:51.582Z,100187.41
2022-10-15T04:09:54.777Z,100180.97
2022-10-15T04:12:59.551Z,100182.50
2022-10-15T04:16:06.295Z,100169.91
2022-10-15T04:19:11.065Z,100181.97
2022-10-15T04:22:14.642Z,100178.19
2022-10-15T04:25:17.558Z,100187.66
2022-10-15T04:28:21.037Z,100178.88
2022-10-15T04:31:23.669Z,100175.22
2022-10-15T04:34:28.515Z,100172.03
2022-10-15T04:37:33.960Z,100173.41
2022-10-15T04:40:36.712Z,100179.25
2022-10-15T04:43:40.719Z,100185.25
2022-10-15T04:46:44.177Z,100183.72
2022-10-15T04:49:47.737Z,100194.34
2022-10-15T04:52:51.888Z,100190.03
2022-10-15T04:55:54.357Z,100186.53
2022-10-15T04:58:57.132Z,100182.22
2022-10-15T05:02:00.261Z,100188.50
2022-10-15T05:05:03.455Z,100185.00
2022-10-15T05:08:06.169Z,100184.62
2022-10-15T05:11:15.863Z,100182.34
2022-10-15T05:14:18.630Z,100188.66
2022-10-15T05:17:25.892Z,100180.38
2022-10-15T05:20:31.919Z,100191.69
2022-10-15T05:23:36.792Z,100192.13
2022-10-15T05:26:40.280Z,100199.09
2022-10-15T05:29:44.336Z,100202.16
2022-10-15T05:32:47.693Z,100202.69
2022-10-15T05:35:52.065Z,100197.22
2022-10-15T05:38:57.592Z,100197.81
2022-10-15T05:42:00.609Z,100196.22
2022-10-15T05:45:04.650Z,100197.75
2022-10-15T05:48:07.796Z,100193.66
2022-10-15T05:51:13.712Z,100192.50
2022-10-15T05:54:16.553Z,100189.59
2022-10-15T05:57:19.104Z,100191.62
2022-10-15T06:00:21.846Z,100206.97
2022-10-15T06:03:28.379Z,100212.53
2022-10-15T06:06:38.851Z,100211.91
2022-10-15T06:09:41.646Z,100224.91
2022-10-15T06:12:49.198Z,100224.47
2022-10-15T06:15:51.973Z,100225.59
2022-10-15T06:18:54.519Z,100227.06
2022-10-15T06:21:57.783Z,100225.78
2022-10-15T06:25:00.231Z,100238.84
2022-10-15T06:28:07.481Z,100239.47
2022-10-15T06:31:14.884Z,100242.88
2022-10-15T06:34:17.838Z,100236.63
2022-10-15T06:37:20.661Z,100246.78
2022-10-15T06:40:23.874Z,100243.06
2022-10-15T06:43:28.719Z,100247.25
2022-10-15T06:46:33.883Z,100243.97
2022-10-15T06:49:36.441Z,100250.03
2022-10-15T06:52:39.462Z,100249.63
2022-10-15T06:55:42.026Z,100254.94
2022-10-15T06:58:45.226Z,100256.84
2022-10-15T07:01:47.692Z,100264.37
2022-10-15T07:04:50.719Z,100267.06
2022-10-15T07:07:57.305Z,100268.13
2022-10-15T07:11:09.297Z,100277.00
2022-10-15T07:14:11.832Z,100268.41
2022-10-15T07:17:15.221Z,100271.06
2022-10-15T07:20:21.814Z,100265.94
2022-10-15T07:23:27.983Z,100276.69
2022-10-15T07:26:31.149Z,100275.38
2022-10-15T07:29:34.735Z,100272.06
2022-10-15T07:32:37.369Z,100276.62
2022-10-15T07:35:40.174Z,100279.81
2022-10-15T07:38:42.969Z,100281.50
2022-10-15T07:41:46.539Z,100270.66
2022-10-15T07:44:49.052Z,100272.84
2022-10-15T07:47:52.636Z,100276.50
2022-10-15T07:51:00.858Z,100274.56
2022-10-15T07:54:03.655Z,100278.06
2022-10-15T07:57:09.208Z,100277.41
2022-10-15T08:00:12.493Z,100271.91
2022-10-15T08:03:14.862Z,100277.56
2022-10-15T08:06:19.186Z,100273.72
2022-10-15T08:09:21.834Z,100282.88
2022-10-15T08:12:25.073Z,100285.06
2022-10-15T08:15:27.940Z,100290.53
2022-10-15T08:18:30.729Z,100282.31
2022-10-15T08:21:33.221Z,100284.63
2022-10-15T08:24:35.967Z,100292.31
2022-10-15T08:27:38.533Z,100279.22
2022-10-15T08:30:41.341Z,100288.19
2022-10-15T08:33:46.485Z,100297.47
2022-10-15T08:36:49.281Z,100297.28
2022-10-15T08:39:51.714Z,100294.66
2022-10-15T08:42:54.543Z,100291.22
2022-10-15T08:46:00.082Z,100284.66
2022-10-15T08:49:03.430Z,100274.69
2022-10-15T08:52:22.517Z,100274.59
2022-10-15T08:55:30.326Z,100272.06
2022-10-15T08:58:46.642Z,100276.59
2022-10-15T09:01:51.237Z,100286.88
2022-10-15T09:05:17.771Z,100290.31
2022-10-15T09:08:57.817Z,100278.28
2022-10-15T09:12:25.176Z,100281.06
2022-10-15T09:15:30.870Z,100278.19
2022-10-15T09:18:35.415Z,100282.34
2022-10-15T09:21:38.450Z,100291.78
2022-10-15T09:24:41.517Z,100286.56
2022-10-15T09:27:46.340Z,100290.59
2022-10-15T09:30:52.511Z,100289.31
2022-10-15T09:34:02.402Z,100291.78
2022-10-15T09:37:37.941Z,100289.81
2022-10-15T09:40:56.197Z,100292.47
2022-10-15T09:43:59.805Z,100290.53
2022-10-15T09:47:25.236Z,100289.34
2022-10-15T09:50:44.370Z,100293.38
2022-10-15T09:54:00.578Z,100296.72
2022-10-15T09:57:03.092Z,100287.66
2022-10-15T10:00:09.386Z,100293.34
2022-10-15T10:03:15.679Z,100296.25
2022-10-15T10:06:18.668Z,100296.91
2022-10-15T10:09:24.009Z,100292.78
2022-10-15T10:12:35.570Z,100276.69
2022-10-15T10:15:41.591Z,100271.19
2022-10-15T10:18:50.478Z,100257.75
2022-10-15T10:22:19.243Z,100253.00
2022-10-15T10:25:44.831Z,100257.34
2022-10-15T10:29:04.931Z,100260.69
2022-10-15T10:32:19.047Z,100268.56
2022-10-15T10:35:24.179Z,100261.50
2022-10-15T10:38:30.824Z,100259.69
2022-10-15T10:41:52.418Z,100254.28
2022-10-15T10:44:55.219Z,100252.22
2022-10-15T10:47:58.618Z,100255.34
2022-10-15T10:51:16.634Z,100243.94
2022-10-15T10:54:25.746Z,100246.00
2022-10-15T10:57:50.551Z,100243.53
2022-10-15T11:00:55.183Z,100226.31
2022-10-15T11:03:58.100Z,100232.94
2022-10-15T11:07:14.171Z,100227.56
2022-10-15T11:10:23.438Z,100227.78
2022-10-15T11:14:01.400Z,100219.28
2022-10-15T11:17:28.491Z,100221.75
2022-10-15T11:20:51.257Z,100219.66
2022-10-15T11:24:08.832Z,100215.28
2022-10-15T11:27:16.761Z,100217.81
2022-10-15T11:30:32.234Z,100208.50
2022-10-15T11:33:57.499Z,100203.09
2022-10-15T11:37:27.543Z,100203.09
2022-10-15T11:40:46.871Z,100195.66
2022-10-15T11:44:33.066Z,100184.66
2022-10-15T11:47:40.898Z,100180.94
2022-10-15T11:51:17.860Z,100169.53
2022-10-15T11:54:31.839Z,100169.13
2022-10-15T11:57:36.270Z,100172.44
2022-10-15T12:00:52.011Z,100172.63
2022-10-15T12:04:01.262Z,100159.37
2022-10-15T12:07:05.326Z,100166.41
2022-10-15T12:10:14.115Z,100168.69
2022-10-15T12:13:25.567Z,100176.16
2022-10-15T12:16:38.796Z,100166.00
2022-10-15T12:20:09.068Z,100159.16
2022-10-15T12:23:24.356Z,100163.09
2022-10-15T12:26:29.503Z,100168.28
2022-10-15T12:29:33.585Z,100158.72
2022-10-15T12:32:38.311Z,100152.94
2022-10-15T12:35:41.211Z,100161.47
2022-10-15T12:39:00.769Z,100157.72
2022-10-15T12:42:03.979Z,100158.56
2022-10-15T12:45:08.707Z,100156.69
2022-10-15T12:48:26.788Z,100162.69
2022-10-15T12:51:31.192Z,100155.81
2022-10-15T12:54:37.756Z,100155.63
2022-10-15T12:57:40.219Z,100145.06
2022-10-15T13:00:43.330Z,100145.47
2022-10-15T13:03:49.113Z,100143.19
2022-10-15T13:06:52.057Z,100140.91
2022-10-15T13:09:54.631Z,100144.03
2022-10-15T13:13:03.401Z,100147.72
2022-10-15T13:16:09.448Z,100146.28
2022-10-15T13:19:20.566Z,100149.81
2022-10-15T13:22:30.569Z,100149.44
2022-10-15T13:25:33.730Z,100150.62
2022-10-15T13:28:38.945Z,100146.72
2022-10-15T13:31:44.993Z,100150.44
2022-10-15T13:34:47.653Z,100142.56
2022-10-15T13:37:50.537Z,100146.53
2022-10-15T13:40:54.391Z,100150.03
2022-10-15T13:44:00.648Z,100150.47
2022-10-15T13:47:03.703Z,100152.53
2022-10-15T13:50:16.911Z,100161.25
2022-10-15T13:53:27.508Z,100157.91
2022-10-15T13:56:31.984Z,100162.69
2022-10-15T13:59:35.062Z,100159.59
2022-10-15T14:02:38.041Z,100162.66
2022-10-15T14:05:45.490Z,100161.81
2022-10-15T14:08:50.086Z,100162.44
2022-10-15T14:11:53.924Z,100157.69
2022-10-15T14:15:35.810Z,100159.13
2022-10-15T14:18:45.208Z,100155.19
2022-10-15T14:21:52.407Z,100153.53
2022-10-15T14:24:56.047Z,100147.31
2022-10-15T14:27:58.603Z,100147.53
2022-10-15T14:31:02.437Z,100146.69
2022-10-15T14:34:05.594Z,100144.41
2022-10-15T14:37:37.114Z,100144.22
2022-10-15T14:40:39.725Z,100146.88
2022-10-15T14:43:42.545Z,100145.81
2022-10-15T14:46:48.463Z,100137.12
2022-10-15T14:49:54.528Z,100134.00
2022-10-15T14:52:57.862Z,100134.84
2022-10-15T14:56:04.036Z,100130.47
2022-10-15T14:59:09.093Z,100135.41
2022-10-15T15:02:16.053Z,100120.91
2022-10-15T15:05:22.007Z,100120.44
2022-10-15T15:08:26.033Z,100126.66
2022-10-15T15:11:28.557Z,100129.56
2022-10-15T15:14:31.539Z,100142.16
2022-10-15T15:17:34.141Z,100144.03
2022-10-15T15:20:37.728Z,100146.69
2022-10-15T15:23:40.729Z,100150.22
2022-10-15T15:26:43.622Z,100145.03
2022-10-15T15:29:48.366Z,100152.59
2022-10-15T15:32:53.964Z,100152.19
2022-10-15T15:36:06.654Z,100158.75
2022-10-15T15:39:09.471Z,100155.41
2022-10-15T15:42:13.585Z,100159.53
2022-10-15T15:45:22.896Z,100163.69
2022-10-15T15:48:25.790Z,100148.34
2022-10-15T15:51:30.625Z,100150.50
2022-10-15T15:54:33.161Z,100156.38
2022-10-15T15:57:36.158Z,100159.78
2022-10-15T16:00:38.718Z,100160.16
2022-10-15T16:03:41.519Z,100165.09
2022-10-15T16:06:44.161Z,100161.31
2022-10-15T16:09:46.987Z,100172.50
2022-10-15T16:12:49.494Z,100180.34
2022-10-15T16:15:52.249Z,100189.41
2022-10-15T16:18:54.832Z,100192.13
2022-10-15T16:21:57.638Z,100195.69
2022-10-15T16:25:00.211Z,100202.09
2022-10-15T16:28:03.257Z,100201.78
2022-10-15T16:31:19.478Z,100206.66
2022-10-15T16:34:22.281Z,100215.94
2022-10-15T16:37:25.133Z,100212.12
2022-10-15T16:40:28.483Z,100210.41
2022-10-15T16:43:30.983Z,100218.06
2022-10-15T16:46:33.837Z,100219.97
2022-10-15T16:49:36.380Z,100223.94
2022-10-15T16:52:40.306Z,100220.63
2022-10-15T16:55:42.802Z,100224.13
2022-10-15T16:58:46.531Z,100234.88
2022-10-15T17:01:49.116Z,100238.41
2022-10-15T17:04:53.006Z,100234.34
2022-10-15T17:07:55.483Z,100236.75
2022-10-15T17:10:58.289Z,100237.47
2022-10-15T17:14:03.850Z,100241.94
2022-10-15T17:17:07.757Z,100245.06
2022-10-15T17:20:11.256Z,100243.84
2022-10-15T17:23:15.526Z,100252.47
2022-10-15T17:26:21.050Z,100250.00
2022-10-15T17:29:27.740Z,100249.03
2022-10-15T17:32:33.366Z,100250.13
2022-10-15T17:35:37.455Z,100244.44
2022-10-15T17:38:39.980Z,100245.59
2022-10-15T17:41:42.896Z,100261.44
2022-10-15T17:44:45.389Z,100261.81
2022-10-15T17:47:48.133Z,100269.03
2022-10-15T17:50:59.877Z,100271.53
2022-10-15T17:54:02.813Z,100284.13
2022-10-15T17:57:05.435Z,100282.56
2022-10-15T18:00:09.059Z,100271.16
2022-10-15T18:03:14.697Z,100274.03
2022-10-15T18:06:19.643Z,100276.81
2022-10-15T18:09:22.162Z,100277.47
2022-10-15T18:12:25.458Z,100282.44
2022-10-15T18:15:27.987Z,100290.44
2022-10-15T18:18:32.390Z,100294.59
2022-10-15T18:21:34.969Z,100298.28
2022-10-15T18:24:37.881Z,100293.38
2022-10-15T18:27:41.081Z,100291.63
2022-10-15T18:30:45.271Z,100299.50
2022-10-15T18:33:52.022Z,100300.84
2022-10-15T18:36:54.941Z,100306.78
2022-10-15T18:39:58.835Z,100310.00
2022-10-15T18:43:02.152Z,100309.38
2022-10-15T18:46:05.317Z,100313.06
2022-10-15T18:49:08.251Z,100309.62
2022-10-15T18:52:21.655Z,100308.53
2022-10-15T18:55:34.041Z,100301.31
2022-10-15T18:58:39.211Z,100297.06
2022-10-15T19:01:44.045Z,100296.50
2022-10-15T19:04:46.782Z,100296.12
2022-10-15T19:07:55.357Z,100289.84
2022-10-15T19:11:05.908Z,100294.47
2022-10-15T19:14:09.304Z,100302.16
2022-10-15T19:17:12.841Z,100297.25
2022-10-15T19:20:16.180Z,100292.06
2022-10-15T19:23:18.698Z,100300.66
2022-10-15T19:26:21.608Z,100302.97
2022-10-15T19:29:24.377Z,100322.22
2022-10-15T19:32:29.035Z,100317.88
2022-10-15T19:35:31.537Z,100322.41
2022-10-15T19:38:34.513Z,100333.13
2022-10-15T19:41:38.449Z,100344.03
2022-10-15T19:44:41.363Z,100340.06
2022-10-15T19:47:44.029Z,100342.09
2022-10-15T19:50:47.354Z,100347.47
2022-10-15T19:53:54.554Z,100346.81
2022-10-15T19:56:58.304Z,100352.16
2022-10-15T20:00:02.128Z,100363.25
2022-10-15T20:03:14.838Z,100358.34
2022-10-15T20:06:18.100Z,100356.34
2022-10-15T20:09:20.809Z,100358.84
2022-10-15T20:12:25.194Z,100355.41
2022-10-15T20:15:27.957Z,100355.72
2022-10-15T20:18:31.636Z,100356.00
2022-10-15T20:21:34.380Z,100354.94
2022-10-15T20:24:37.152Z,100366.63
2022-10-15T20:27:39.639Z,100362.75
2022-10-15T20:30:43.991Z,100370.97
2022-10-15T20:33:46.812Z,100379.66
2022-10-15T20:36:53.520Z,100389.91
2022-10-15T20:42:59.832Z,100384.06
2022-10-15T20:46:02.637Z,100405.69
2022-10-15T20:52:15.777Z,100395.03
2022-10-15T20:55:18.674Z,100400.03
2022-10-15T20:58:21.470Z,100400.94
2022-10-15T21:01:24.380Z,100405.94
2022-10-15T21:04:27.109Z,100403.44
2022-10-15T21:07:30.001Z,100410.81
2022-10-15T21:10:32.828Z,100402.97
2022-10-15T21:13:35.765Z,100408.16
2022-10-15T21:16:38.710Z,100404.50
2022-10-15T21:19:41.504Z,100409.50
2022-10-15T21:22:43.972Z,100413.03
2022-10-15T21:25:46.749Z,100407.84
2022-10-15T21:29:02.302Z,100404.16
2022-10-15T21:32:05.194Z,100408.22
2022-10-15T21:35:08.062Z,100403.50
2022-10-15T21:38:11.010Z,100403.31
2022-10-15T21:41:13.507Z,100409.38
2022-10-15T21:44:16.463Z,100404.66
2022-10-15T21:47:18.932Z,100403.69
2022-10-15T21:50:21.789Z,100405.16
2022-10-15T21:53:24.288Z,100403.16
2022-10-15T21:56:27.333Z,100416.72
2022-10-15T21:59:29.777Z,100407.50
2022-10-15T22:02:32.558Z,100421.94
2022-10-15T22:05:35.354Z,100425.75
2022-10-15T22:08:38.467Z,100424.59
2022-10-15T22:11:41.973Z,100426.59
2022-10-15T22:14:44.476Z,100431.13
2022-10-15T22:17:47.362Z,100429.44
2022-10-15T22:20:50.067Z,100438.31
2022-10-15T22:24:05.460Z,100435.81
2022-10-15T22:27:08.513Z,100426.94
2022-10-15T22:30:11.606Z,100428.97
2022-10-15T22:33:14.109Z,100425.94
2022-10-15T22:36:22.087Z,100436.19
2022-10-15T22:39:24.549Z,100436.34
2022-10-15T22:42:27.623Z,100436.41
2022-10-15T22:45:30.730Z,100445.81
2022-10-15T22:48:37.983Z,100450.16
2022-10-15T22:51:41.005Z,100444.13
2022-10-15T22:54:43.824Z,100453.19
2022-10-15T22:57:46.688Z,100458.41
2022-10-15T23:00:49.689Z,100458.72
2022-10-15T23:03:54.554Z,100466.56
2022-10-15T23:06:57.327Z,100461.56
2022-10-15T23:09:59.910Z,100465.91
2022-10-15T23:13:02.746Z,100469.28
2022-10-15T23:16:06.989Z,100469.94
2022-10-15T23:19:17.109Z,100475.31
2022-10-15T23:22:19.636Z,100480.13
2022-10-15T23:25:22.601Z,100474.66
2022-10-15T23:28:25.390Z,100481.31
2022-10-15T23:31:30.512Z,100482.16
2022-10-15T23:34:33.011Z,100478.47
2022-10-15T23:37:40.669Z,100485.00
2022-10-15T23:40:43.472Z,100485.00
2022-10-15T23:43:46.354Z,100484.00
2022-10-15T23:46:48.796Z,100481.31
2022-10-15T23:49:51.684Z,100491.19
2022-10-15T23:52:54.160Z,100493.03
2022-10-15T23:55:57.044Z,100503.09
2022-10-15T23:59:00.396Z,100500.75
